createdAt,value
2017-12-27T00:00:19.564Z,5.28
2017-12-27T00:01:21.436Z,5.12
2017-12-27T00:02:23.315Z,5.12
2017-12-27T00:03:25.182Z,5.13
2017-12-27T00:04:26.999Z,5.09
2017-12-27T00:05:28.792Z,5.07
2017-12-27T00:06:30.657Z,5.12
2017-12-27T00:07:32.516Z,5.22
2017-12-27T00:08:34.391Z,5.18
2017-12-27T00:09:48.522Z,5.30
2017-12-27T00:10:50.393Z,5.30
2017-12-27T00:11:52.251Z,5.39
2017-12-27T00:12:54.133Z,5.43
2017-12-27T00:13:55.928Z,5.48
2017-12-27T00:14:57.726Z,5.48
2017-12-27T00:15:59.598Z,5.46
2017-12-27T00:17:01.453Z,5.56
2017-12-27T00:18:03.337Z,5.51
2017-12-27T00:19:17.463Z,5.56
2017-12-27T00:20:19.350Z,5.48
2017-12-27T00:21:21.237Z,5.46
2017-12-27T00:22:23.134Z,5.61
2017-12-27T00:23:24.957Z,5.60
2017-12-27T00:24:26.768Z,5.56
2017-12-27T00:25:28.635Z,5.54
2017-12-27T00:26:30.512Z,5.46
2017-12-27T00:27:32.410Z,5.53
2017-12-27T00:28:46.582Z,5.46
2017-12-27T00:29:48.445Z,5.46
2017-12-27T00:30:50.332Z,5.60
2017-12-27T00:31:52.217Z,5.57
2017-12-27T00:32:54.014Z,5.49
2017-12-27T00:33:55.844Z,5.54
2017-12-27T00:34:57.698Z,5.46
2017-12-27T00:35:59.564Z,5.51
2017-12-27T00:37:01.431Z,5.49
2017-12-27T00:38:15.583Z,5.56
2017-12-27T00:39:17.448Z,5.51
2017-12-27T00:40:19.304Z,5.56
2017-12-27T00:41:21.167Z,5.58
2017-12-27T00:42:22.984Z,5.48
2017-12-27T00:43:24.787Z,5.48
2017-12-27T00:44:26.672Z,5.54
2017-12-27T00:45:28.558Z,5.49
2017-12-27T00:46:30.413Z,5.51
2017-12-27T00:47:44.599Z,5.54
2017-12-27T00:48:46.481Z,5.43
2017-12-27T00:49:48.352Z,5.54
2017-12-27T00:50:50.231Z,5.57
2017-12-27T00:51:52.034Z,5.46
2017-12-27T00:52:53.851Z,5.56
2017-12-27T00:53:55.714Z,5.51
2017-12-27T00:54:57.599Z,5.56
2017-12-27T00:55:59.480Z,5.51
2017-12-27T00:57:13.613Z,5.48
2017-12-27T00:58:15.477Z,5.51
2017-12-27T00:59:17.336Z,5.51
2017-12-27T01:00:19.199Z,5.49
2017-12-27T01:01:20.998Z,5.48
2017-12-27T01:02:22.822Z,5.46
2017-12-27T01:03:24.702Z,5.48
2017-12-27T01:04:26.584Z,5.40
2017-12-27T01:05:28.450Z,5.46
2017-12-27T01:06:42.580Z,5.45
2017-12-27T01:07:44.444Z,5.48
2017-12-27T01:08:46.308Z,5.38
2017-12-27T01:09:48.190Z,5.45
2017-12-27T01:10:49.991Z,5.45
2017-12-27T01:11:51.809Z,5.45
2017-12-27T01:12:53.691Z,5.48
2017-12-27T01:13:55.554Z,5.48
2017-12-27T01:14:57.440Z,5.49
2017-12-27T01:16:11.592Z,5.43
2017-12-27T01:17:13.456Z,5.40
2017-12-27T01:18:15.319Z,5.30
2017-12-27T01:19:17.205Z,5.20
2017-12-27T01:20:19.023Z,5.21
2017-12-27T01:21:20.824Z,5.30
2017-12-27T01:22:22.705Z,5.30
2017-12-27T01:23:24.584Z,5.13
2017-12-27T01:24:26.451Z,5.22
2017-12-27T01:25:40.629Z,5.22
2017-12-27T01:26:42.484Z,5.17
2017-12-27T01:27:44.346Z,5.28
2017-12-27T01:28:46.210Z,5.18
2017-12-27T01:29:48.029Z,5.15
2017-12-27T01:30:49.849Z,5.12
2017-12-27T01:31:51.733Z,5.15
2017-12-27T01:32:53.596Z,5.00
2017-12-27T01:33:55.482Z,4.97
2017-12-27T01:35:09.682Z,5.02
2017-12-27T01:36:11.542Z,4.97
2017-12-27T01:37:13.427Z,5.03
2017-12-27T01:38:15.293Z,4.99
2017-12-27T01:39:17.119Z,5.03
2017-12-27T01:40:18.930Z,4.99
2017-12-27T01:41:20.794Z,5.00
2017-12-27T01:42:22.662Z,4.94
2017-12-27T01:43:24.548Z,4.96
2017-12-27T01:44:38.696Z,4.99
2017-12-27T01:45:40.557Z,4.85
2017-12-27T01:46:42.425Z,4.94
2017-12-27T01:47:44.282Z,4.88
2017-12-27T01:48:46.103Z,4.86
2017-12-27T01:49:47.918Z,4.84
2017-12-27T01:50:49.783Z,4.84
2017-12-27T01:51:51.665Z,4.84
2017-12-27T01:52:53.526Z,4.86
2017-12-27T01:54:07.656Z,4.92
2017-12-27T01:55:09.523Z,4.97
2017-12-27T01:56:11.408Z,4.82
2017-12-27T01:57:13.285Z,4.86
2017-12-27T01:58:15.088Z,4.84
2017-12-27T01:59:16.903Z,4.80
2017-12-27T02:00:18.763Z,4.77
2017-12-27T02:01:20.625Z,4.72
2017-12-27T02:02:22.507Z,4.67
2017-12-27T02:03:36.641Z,4.73
2017-12-27T02:04:38.530Z,4.63
2017-12-27T02:05:40.412Z,4.70
2017-12-27T02:06:42.293Z,4.70
2017-12-27T02:07:44.099Z,4.69
2017-12-27T02:08:45.918Z,4.72
2017-12-27T02:09:47.795Z,4.65
2017-12-27T02:10:49.663Z,4.59
2017-12-27T02:11:51.542Z,4.66
2017-12-27T02:13:05.669Z,4.58
2017-12-27T02:14:07.538Z,4.52
2017-12-27T02:15:09.421Z,4.58
2017-12-27T02:16:11.312Z,4.59
2017-12-27T02:17:13.120Z,4.63
2017-12-27T02:18:14.936Z,4.54
2017-12-27T02:19:16.791Z,4.54
2017-12-27T02:20:18.652Z,4.44
2017-12-27T02:21:20.518Z,4.32
2017-12-27T02:22:34.665Z,4.36
2017-12-27T02:23:36.525Z,4.23
2017-12-27T02:24:38.385Z,4.27
2017-12-27T02:25:40.263Z,4.18
2017-12-27T02:26:42.064Z,4.22
2017-12-27T02:27:43.879Z,4.11
2017-12-27T02:28:45.742Z,4.20
2017-12-27T02:29:47.601Z,4.23
2017-12-27T02:30:49.481Z,4.22
2017-12-27T02:32:03.654Z,4.23
2017-12-27T02:33:05.509Z,4.27
2017-12-27T02:34:07.366Z,4.20
2017-12-27T02:35:09.226Z,4.24
2017-12-27T02:36:11.042Z,4.27
2017-12-27T02:37:12.855Z,4.24
2017-12-27T02:38:14.741Z,4.29
2017-12-27T02:39:16.617Z,4.29
2017-12-27T02:40:18.480Z,4.24
2017-12-27T02:41:32.628Z,4.32
2017-12-27T02:42:34.508Z,4.29
2017-12-27T02:43:36.365Z,4.37
2017-12-27T02:44:38.246Z,4.29
2017-12-27T02:45:40.044Z,4.29
2017-12-27T02:46:41.860Z,4.30
2017-12-27T02:47:43.743Z,4.34
2017-12-27T02:48:45.620Z,4.30
2017-12-27T02:49:47.486Z,4.32
2017-12-27T02:51:01.635Z,4.40
2017-12-27T02:52:03.510Z,4.42
2017-12-27T02:53:05.376Z,4.40
2017-12-27T02:54:07.232Z,4.42
2017-12-27T02:55:09.026Z,4.37
2017-12-27T02:56:10.821Z,4.44
2017-12-27T02:57:12.688Z,4.50
2017-12-27T02:58:14.570Z,4.45
2017-12-27T02:59:16.426Z,4.40
2017-12-27T03:00:30.558Z,4.52
2017-12-27T03:01:32.439Z,4.50
2017-12-27T03:02:34.322Z,4.42
2017-12-27T03:03:36.204Z,4.41
2017-12-27T03:04:38.025Z,4.41
2017-12-27T03:05:39.844Z,4.41
2017-12-27T03:06:41.725Z,4.47
2017-12-27T03:07:43.586Z,4.42
2017-12-27T03:08:45.446Z,4.51
2017-12-27T03:09:59.573Z,4.41
2017-12-27T03:11:01.430Z,4.42
2017-12-27T03:12:03.287Z,4.40
2017-12-27T03:13:05.204Z,4.40
2017-12-27T03:14:06.948Z,4.40
2017-12-27T03:15:08.764Z,4.29
2017-12-27T03:16:10.623Z,4.27
2017-12-27T03:17:12.488Z,4.27
2017-12-27T03:18:14.371Z,4.20
2017-12-27T03:19:28.519Z,4.23
2017-12-27T03:20:30.383Z,4.14
2017-12-27T03:21:32.264Z,4.09
2017-12-27T03:22:34.122Z,4.06
2017-12-27T03:23:35.939Z,4.14
2017-12-27T03:24:37.736Z,4.08
2017-12-27T03:25:39.621Z,4.08
2017-12-27T03:26:41.504Z,4.06
2017-12-27T03:27:43.382Z,3.97
2017-12-27T03:28:57.514Z,4.11
2017-12-27T03:29:59.372Z,4.08
2017-12-27T03:31:01.233Z,4.08
2017-12-27T03:32:03.089Z,4.06
2017-12-27T03:33:04.907Z,4.08
2017-12-27T03:34:06.719Z,4.15
2017-12-27T03:35:08.580Z,4.15
2017-12-27T03:36:10.466Z,4.16
2017-12-27T03:37:12.349Z,4.29
2017-12-27T03:38:26.496Z,4.30
2017-12-27T03:39:28.355Z,4.36
2017-12-27T03:40:30.218Z,4.32
2017-12-27T03:41:32.097Z,4.30
2017-12-27T03:42:33.920Z,4.41
2017-12-27T03:43:35.733Z,4.29
2017-12-27T03:44:37.598Z,4.29
2017-12-27T03:45:39.465Z,4.20
2017-12-27T03:46:41.327Z,4.24
2017-12-27T03:47:55.474Z,4.20
2017-12-27T03:48:57.351Z,4.06
2017-12-27T03:49:59.207Z,3.98
2017-12-27T03:51:01.067Z,3.87
2017-12-27T03:52:02.877Z,3.75
2017-12-27T03:53:04.671Z,3.84
2017-12-27T03:54:06.534Z,3.87
2017-12-27T03:55:08.413Z,3.88
2017-12-27T03:56:10.269Z,3.98
2017-12-27T03:57:24.397Z,3.96
2017-12-27T03:58:26.277Z,4.00
2017-12-27T03:59:28.161Z,3.98
2017-12-27T04:00:30.036Z,4.11
2017-12-27T04:01:31.831Z,3.96
2017-12-27T04:02:33.624Z,4.05
2017-12-27T04:03:35.508Z,4.08
2017-12-27T04:04:37.392Z,4.00
2017-12-27T04:05:39.264Z,4.14
2017-12-27T04:06:53.397Z,3.98
2017-12-27T04:07:55.275Z,3.96
2017-12-27T04:08:57.153Z,4.08
2017-12-27T04:09:59.011Z,4.00
2017-12-27T04:11:00.808Z,4.00
2017-12-27T04:12:02.627Z,4.09
2017-12-27T04:13:04.507Z,4.02
2017-12-27T04:14:06.368Z,4.02
2017-12-27T04:15:08.230Z,4.09
2017-12-27T04:16:22.381Z,4.24
2017-12-27T04:17:24.257Z,4.20
2017-12-27T04:18:26.141Z,4.22
2017-12-27T04:19:28.021Z,4.16
2017-12-27T04:20:29.843Z,4.33
2017-12-27T04:21:31.657Z,4.30
2017-12-27T04:22:33.542Z,4.26
2017-12-27T04:23:35.414Z,4.32
2017-12-27T04:24:37.278Z,4.26
2017-12-27T04:25:51.428Z,4.16
2017-12-27T04:26:53.303Z,4.09
2017-12-27T04:27:55.164Z,4.06
2017-12-27T04:28:57.046Z,4.06
2017-12-27T04:29:58.836Z,4.04
2017-12-27T04:31:00.630Z,4.00
2017-12-27T04:32:02.511Z,4.05
2017-12-27T04:33:04.391Z,3.98
2017-12-27T04:34:06.246Z,4.05
2017-12-27T04:35:20.390Z,4.20
2017-12-27T04:36:22.250Z,4.24
2017-12-27T04:37:24.109Z,4.22
2017-12-27T04:38:25.987Z,4.16
2017-12-27T04:39:27.806Z,4.16
2017-12-27T04:40:29.622Z,4.18
2017-12-27T04:41:31.508Z,4.20
2017-12-27T04:42:33.393Z,4.22
2017-12-27T04:43:35.274Z,4.08
2017-12-27T04:44:49.418Z,4.06
2017-12-27T04:45:51.275Z,3.98
2017-12-27T04:46:53.131Z,3.98
2017-12-27T04:47:54.990Z,3.94
2017-12-27T04:48:56.790Z,3.75
2017-12-27T04:49:58.600Z,3.80
2017-12-27T04:51:00.480Z,3.76
2017-12-27T04:52:02.337Z,3.90
2017-12-27T04:53:04.227Z,3.86
2017-12-27T04:54:18.364Z,3.83
2017-12-27T04:55:20.228Z,3.96
2017-12-27T04:56:22.108Z,4.04
2017-12-27T04:57:23.991Z,3.98
2017-12-27T04:58:25.808Z,4.00
2017-12-27T04:59:27.604Z,3.97
2017-12-27T05:00:29.484Z,4.02
2017-12-27T05:01:31.344Z,3.98
2017-12-27T05:02:33.224Z,4.09
2017-12-27T05:03:47.350Z,4.05
2017-12-27T05:04:49.206Z,4.06
2017-12-27T05:05:51.090Z,3.97
2017-12-27T05:06:52.967Z,4.00
2017-12-27T05:07:54.786Z,4.04
2017-12-27T05:08:56.599Z,4.02
2017-12-27T05:09:58.457Z,3.97
2017-12-27T05:11:00.315Z,4.05
2017-12-27T05:12:02.172Z,4.06
2017-12-27T05:13:16.295Z,4.09
2017-12-27T05:14:18.151Z,4.09
2017-12-27T05:15:20.013Z,4.05
2017-12-27T05:16:21.894Z,4.11
2017-12-27T05:17:23.710Z,4.22
2017-12-27T05:18:25.502Z,4.15
2017-12-27T05:19:27.359Z,4.22
2017-12-27T05:20:29.211Z,4.04
2017-12-27T05:21:31.073Z,4.04
2017-12-27T05:22:45.195Z,4.02
2017-12-27T05:23:47.053Z,3.79
2017-12-27T05:24:48.934Z,3.86
2017-12-27T05:25:50.800Z,3.83
2017-12-27T05:26:52.615Z,3.87
2017-12-27T05:27:54.410Z,3.86
2017-12-27T05:28:56.271Z,3.97
2017-12-27T05:29:58.151Z,3.97
2017-12-27T05:31:00.010Z,4.00
2017-12-27T05:32:14.158Z,4.00
2017-12-27T05:33:16.039Z,3.97
2017-12-27T05:34:17.913Z,4.06
2017-12-27T05:35:19.765Z,4.14
2017-12-27T05:36:21.565Z,4.16
2017-12-27T05:37:23.360Z,4.09
2017-12-27T05:38:25.240Z,4.18
2017-12-27T05:39:27.099Z,4.27
2017-12-27T05:40:28.981Z,4.34
2017-12-27T05:41:43.129Z,4.47
2017-12-27T05:42:44.990Z,4.54
2017-12-27T05:43:46.873Z,4.51
2017-12-27T05:44:48.757Z,4.41
2017-12-27T05:45:50.569Z,4.47
2017-12-27T05:46:52.361Z,4.27
2017-12-27T05:47:54.224Z,4.30
2017-12-27T05:48:56.084Z,4.29
2017-12-27T05:49:57.940Z,4.41
2017-12-27T05:51:12.067Z,4.41
2017-12-27T05:52:13.945Z,4.44
2017-12-27T05:53:15.826Z,4.44
2017-12-27T05:54:17.683Z,4.30
2017-12-27T05:55:19.478Z,4.30
2017-12-27T05:56:21.292Z,4.44
2017-12-27T05:57:23.173Z,4.30
2017-12-27T05:58:25.053Z,4.34
2017-12-27T05:59:26.934Z,4.44
2017-12-27T06:00:41.084Z,4.41
2017-12-27T06:01:42.939Z,4.54
2017-12-27T06:02:44.795Z,4.59
2017-12-27T06:03:46.656Z,4.67
2017-12-27T06:04:48.476Z,4.62
2017-12-27T06:05:50.293Z,4.59
2017-12-27T06:06:52.169Z,4.65
2017-12-27T06:07:54.032Z,4.48
2017-12-27T06:08:55.910Z,4.58
2017-12-27T06:10:10.043Z,4.60
2017-12-27T06:11:11.900Z,4.62
2017-12-27T06:12:13.780Z,4.48
2017-12-27T06:13:15.642Z,4.50
2017-12-27T06:14:17.460Z,4.45
2017-12-27T06:15:19.256Z,4.40
2017-12-27T06:16:21.138Z,4.40
2017-12-27T06:17:23.020Z,4.42
2017-12-27T06:18:24.898Z,4.26
2017-12-27T06:19:39.026Z,4.24
2017-12-27T06:20:40.904Z,4.11
2017-12-27T06:21:42.782Z,3.94
2017-12-27T06:22:44.640Z,4.02
2017-12-27T06:23:46.436Z,3.83
2017-12-27T06:24:48.245Z,3.83
2017-12-27T06:25:50.108Z,3.79
2017-12-27T06:26:51.971Z,3.83
2017-12-27T06:27:53.820Z,3.73
2017-12-27T06:29:07.995Z,3.66
2017-12-27T06:30:09.858Z,3.60
2017-12-27T06:31:11.737Z,3.66
2017-12-27T06:32:13.593Z,3.60
2017-12-27T06:33:15.391Z,3.66
2017-12-27T06:34:17.205Z,3.62
2017-12-27T06:35:19.062Z,3.60
2017-12-27T06:36:20.941Z,3.39
2017-12-27T06:37:22.802Z,3.43
2017-12-27T06:38:36.952Z,3.33
2017-12-27T06:39:38.808Z,3.39
2017-12-27T06:40:40.669Z,3.29
2017-12-27T06:41:42.551Z,3.31
2017-12-27T06:42:44.351Z,3.21
2017-12-27T06:43:46.167Z,3.24
2017-12-27T06:44:48.049Z,3.21
2017-12-27T06:45:49.909Z,3.32
2017-12-27T06:46:51.792Z,3.31
2017-12-27T06:48:05.965Z,3.40
2017-12-27T06:49:07.823Z,3.45
2017-12-27T06:50:09.698Z,3.57
2017-12-27T06:51:11.587Z,3.61
2017-12-27T06:52:13.398Z,3.70
2017-12-27T06:53:15.197Z,3.72
2017-12-27T06:54:17.052Z,3.86
2017-12-27T06:55:18.913Z,3.84
2017-12-27T06:56:20.775Z,3.91
2017-12-27T06:57:34.904Z,3.98
2017-12-27T06:58:36.758Z,3.86
2017-12-27T06:59:38.623Z,3.86
2017-12-27T07:00:40.486Z,3.94
2017-12-27T07:01:42.288Z,3.94
2017-12-27T07:02:44.102Z,3.98
2017-12-27T07:03:45.964Z,3.91
2017-12-27T07:04:47.825Z,3.84
2017-12-27T07:05:49.691Z,3.94
2017-12-27T07:07:03.894Z,3.90
2017-12-27T07:08:05.744Z,3.87
2017-12-27T07:09:07.602Z,3.80
2017-12-27T07:10:09.463Z,3.98
2017-12-27T07:11:11.260Z,3.86
2017-12-27T07:12:13.079Z,3.91
2017-12-27T07:13:14.942Z,3.93
2017-12-27T07:14:16.804Z,3.87
2017-12-27T07:15:18.689Z,3.76
2017-12-27T07:16:32.837Z,3.79
2017-12-27T07:17:34.720Z,3.78
2017-12-27T07:18:36.581Z,3.79
2017-12-27T07:19:38.458Z,3.93
2017-12-27T07:20:40.256Z,3.96
2017-12-27T07:21:42.056Z,3.79
2017-12-27T07:22:43.956Z,3.91
2017-12-27T07:23:45.823Z,3.83
2017-12-27T07:24:47.709Z,3.97
2017-12-27T07:26:01.836Z,4.06
2017-12-27T07:27:03.714Z,3.96
2017-12-27T07:28:05.580Z,3.98
2017-12-27T07:29:07.442Z,3.94
2017-12-27T07:30:09.266Z,3.96
2017-12-27T07:31:11.081Z,3.93
2017-12-27T07:32:12.951Z,4.05
2017-12-27T07:33:14.835Z,4.08
2017-12-27T07:34:16.722Z,4.05
2017-12-27T07:35:30.877Z,4.04
2017-12-27T07:36:32.759Z,4.09
2017-12-27T07:37:34.642Z,3.97
2017-12-27T07:38:36.527Z,4.02
2017-12-27T07:39:38.350Z,4.09
2017-12-27T07:40:40.142Z,4.06
2017-12-27T07:41:42.070Z,4.02
2017-12-27T07:42:43.988Z,4.05
2017-12-27T07:43:45.855Z,4.15
2017-12-27T07:45:00.006Z,4.18
2017-12-27T07:46:01.864Z,4.18
2017-12-27T07:47:03.730Z,4.24
2017-12-27T07:48:05.591Z,4.37
2017-12-27T07:49:07.414Z,4.54
2017-12-27T07:50:09.234Z,4.48
2017-12-27T07:51:11.118Z,4.50
2017-12-27T07:52:13.004Z,4.63
2017-12-27T07:53:14.863Z,4.52
2017-12-27T07:54:28.992Z,4.50
2017-12-27T07:55:30.858Z,4.54
2017-12-27T07:56:32.755Z,4.54
2017-12-27T07:57:34.640Z,4.67
2017-12-27T07:58:36.463Z,4.52
2017-12-27T07:59:38.280Z,4.63
2017-12-27T08:00:40.144Z,4.70
2017-12-27T08:01:42.032Z,4.80
2017-12-27T08:02:43.895Z,4.85
2017-12-27T08:03:58.260Z,4.96
2017-12-27T08:05:00.130Z,5.03
2017-12-27T08:06:02.070Z,5.03
2017-12-27T08:07:04.042Z,5.03
2017-12-27T08:08:06.014Z,5.00
2017-12-27T08:09:07.899Z,5.02
2017-12-27T08:10:10.092Z,5.07
2017-12-27T08:11:11.979Z,5.02
2017-12-27T08:12:13.904Z,4.96
2017-12-27T08:13:28.168Z,4.94
2017-12-27T08:14:30.147Z,4.82
2017-12-27T08:15:32.111Z,4.77
2017-12-27T08:16:33.977Z,4.66
2017-12-27T08:17:35.800Z,4.80
2017-12-27T08:18:37.621Z,4.78
2017-12-27T08:19:39.510Z,4.84
2017-12-27T08:20:41.392Z,4.91
2017-12-27T08:21:43.257Z,4.86
2017-12-27T08:22:57.411Z,4.67
2017-12-27T08:23:59.306Z,4.51
2017-12-27T08:25:01.182Z,4.62
2017-12-27T08:26:03.050Z,4.70
2017-12-27T08:27:04.873Z,4.70
2017-12-27T08:28:06.675Z,4.69
2017-12-27T08:29:08.563Z,4.82
2017-12-27T08:30:10.464Z,4.78
2017-12-27T08:31:12.339Z,4.73
2017-12-27T08:32:26.471Z,4.65
2017-12-27T08:33:28.356Z,4.86
2017-12-27T08:34:30.242Z,4.97
2017-12-27T08:35:32.105Z,4.96
2017-12-27T08:36:33.931Z,5.09
2017-12-27T08:37:35.756Z,5.04
2017-12-27T08:38:37.642Z,5.09
2017-12-27T08:39:39.507Z,5.09
2017-12-27T08:40:41.390Z,5.22
2017-12-27T08:41:55.521Z,5.40
2017-12-27T08:42:57.388Z,5.51
2017-12-27T08:43:59.270Z,5.58
2017-12-27T08:45:01.140Z,5.78
2017-12-27T08:46:02.965Z,5.93
2017-12-27T08:47:04.788Z,6.09
2017-12-27T08:48:06.691Z,6.08
2017-12-27T08:49:08.584Z,6.08
2017-12-27T08:50:10.500Z,6.09
2017-12-27T08:51:24.728Z,6.18
2017-12-27T08:52:26.780Z,6.04
2017-12-27T08:53:28.637Z,6.00
2017-12-27T08:54:30.571Z,5.83
2017-12-27T08:55:32.379Z,5.83
2017-12-27T08:56:34.212Z,5.96
2017-12-27T08:57:36.143Z,6.08
2017-12-27T08:58:38.043Z,6.12
2017-12-27T08:59:39.909Z,6.19
2017-12-27T09:00:54.092Z,6.19
2017-12-27T09:01:55.973Z,6.04
2017-12-27T09:02:57.867Z,5.94
2017-12-27T09:03:59.736Z,5.72
2017-12-27T09:05:01.564Z,5.67
2017-12-27T09:06:03.387Z,5.68
2017-12-27T09:07:05.250Z,5.60
2017-12-27T09:08:07.118Z,5.49
2017-12-27T09:09:09.023Z,5.45
2017-12-27T09:10:23.179Z,5.51
2017-12-27T09:11:25.062Z,5.49
2017-12-27T09:12:26.922Z,5.42
2017-12-27T09:13:28.796Z,5.30
2017-12-27T09:14:30.620Z,5.21
2017-12-27T09:15:32.397Z,5.10
2017-12-27T09:16:34.287Z,5.03
2017-12-27T09:17:36.168Z,5.10
2017-12-27T09:18:38.039Z,4.97
2017-12-27T09:19:52.196Z,4.99
2017-12-27T09:20:54.084Z,5.02
2017-12-27T09:21:55.964Z,4.99
2017-12-27T09:22:57.843Z,4.91
2017-12-27T09:23:59.771Z,4.96
2017-12-27T09:25:01.562Z,4.91
2017-12-27T09:26:03.450Z,5.03
2017-12-27T09:27:05.334Z,4.96
2017-12-27T09:28:07.191Z,4.94
2017-12-27T09:29:21.327Z,5.06
2017-12-27T09:30:23.191Z,5.07
2017-12-27T09:31:25.076Z,5.06
2017-12-27T09:32:26.984Z,5.04
2017-12-27T09:33:28.809Z,5.12
2017-12-27T09:34:30.639Z,5.20
2017-12-27T09:35:32.536Z,5.33
2017-12-27T09:36:34.400Z,5.36
2017-12-27T09:37:36.309Z,5.39
2017-12-27T09:38:50.438Z,5.51
2017-12-27T09:39:52.307Z,5.42
2017-12-27T09:40:54.216Z,5.39
2017-12-27T09:41:56.082Z,5.49
2017-12-27T09:42:57.901Z,5.64
2017-12-27T09:43:59.701Z,5.61
2017-12-27T09:45:01.602Z,5.68
2017-12-27T09:46:03.440Z,5.63
2017-12-27T09:47:05.350Z,5.46
2017-12-27T09:48:19.504Z,5.48
2017-12-27T09:49:21.392Z,5.43
2017-12-27T09:50:23.327Z,5.43
2017-12-27T09:51:25.144Z,5.57
2017-12-27T09:52:26.969Z,5.68
2017-12-27T09:53:28.801Z,5.61
2017-12-27T09:54:30.687Z,5.65
2017-12-27T09:55:32.568Z,5.72
2017-12-27T09:56:34.425Z,5.78
2017-12-27T09:57:48.683Z,5.86
2017-12-27T09:58:50.515Z,5.94
2017-12-27T09:59:52.422Z,5.89
2017-12-27T10:00:54.301Z,5.72
2017-12-27T10:01:56.119Z,5.81
2017-12-27T10:02:57.931Z,5.72
2017-12-27T10:03:59.813Z,5.64
2017-12-27T10:05:01.699Z,5.53
2017-12-27T10:06:03.569Z,5.51
2017-12-27T10:07:17.746Z,5.64
2017-12-27T10:08:19.632Z,5.72
2017-12-27T10:09:21.501Z,5.65
2017-12-27T10:10:23.390Z,5.60
2017-12-27T10:11:25.214Z,5.63
2017-12-27T10:12:27.038Z,5.60
2017-12-27T10:13:28.906Z,5.72
2017-12-27T10:14:30.788Z,5.64
2017-12-27T10:15:32.617Z,5.79
2017-12-27T10:16:46.820Z,5.93
2017-12-27T10:17:48.687Z,5.96
2017-12-27T10:18:50.549Z,5.94
2017-12-27T10:19:52.452Z,5.96
2017-12-27T10:20:54.239Z,5.96
2017-12-27T10:21:56.142Z,5.97
2017-12-27T10:22:57.950Z,5.81
2017-12-27T10:23:59.851Z,5.81
2017-12-27T10:25:01.721Z,5.74
2017-12-27T10:26:15.853Z,5.68
2017-12-27T10:27:17.740Z,5.65
2017-12-27T10:28:19.623Z,5.63
2017-12-27T10:29:21.487Z,5.48
2017-12-27T10:30:23.291Z,5.49
2017-12-27T10:31:25.114Z,5.49
2017-12-27T10:32:27.007Z,5.33
2017-12-27T10:33:28.875Z,5.46
2017-12-27T10:34:30.734Z,5.45
2017-12-27T10:35:44.869Z,5.46
2017-12-27T10:36:46.745Z,5.43
2017-12-27T10:37:48.616Z,5.54
2017-12-27T10:38:50.501Z,5.64
2017-12-27T10:39:52.627Z,5.72
2017-12-27T10:40:54.388Z,5.83
2017-12-27T10:41:56.280Z,5.75
2017-12-27T10:42:58.177Z,5.81
2017-12-27T10:44:00.031Z,5.82
2017-12-27T10:45:14.165Z,5.86
2017-12-27T10:46:16.060Z,5.82
2017-12-27T10:47:17.938Z,5.94
2017-12-27T10:48:19.833Z,5.96
2017-12-27T10:49:21.636Z,5.94
2017-12-27T10:50:23.456Z,5.99
2017-12-27T10:51:25.408Z,5.99
2017-12-27T10:52:27.311Z,6.00
2017-12-27T10:53:29.168Z,5.97
2017-12-27T10:54:43.366Z,6.00
2017-12-27T10:55:45.247Z,5.97
2017-12-27T10:56:47.111Z,5.93
2017-12-27T10:57:49.014Z,5.89
2017-12-27T10:58:50.817Z,5.91
2017-12-27T10:59:52.614Z,5.89
2017-12-27T11:00:54.517Z,5.79
2017-12-27T11:01:56.379Z,5.93
2017-12-27T11:02:58.235Z,6.03
2017-12-27T11:04:12.457Z,6.06
2017-12-27T11:05:14.292Z,6.09
2017-12-27T11:06:16.195Z,6.04
2017-12-27T11:07:18.051Z,6.04
2017-12-27T11:08:19.910Z,6.11
2017-12-27T11:09:21.731Z,6.01
2017-12-27T11:10:23.590Z,6.06
2017-12-27T11:11:25.452Z,5.91
2017-12-27T11:12:27.315Z,5.81
2017-12-27T11:13:41.447Z,5.85
2017-12-27T11:14:43.312Z,5.94
2017-12-27T11:15:45.174Z,6.01
2017-12-27T11:16:47.039Z,6.27
2017-12-27T11:17:48.838Z,6.37
2017-12-27T11:18:50.640Z,6.36
2017-12-27T11:19:52.528Z,6.28
2017-12-27T11:20:54.386Z,6.30
2017-12-27T11:21:56.248Z,6.25
2017-12-27T11:23:10.384Z,6.36
2017-12-27T11:24:12.246Z,6.43
2017-12-27T11:25:14.135Z,6.48
2017-12-27T11:26:16.002Z,6.33
2017-12-27T11:27:17.803Z,6.36
2017-12-27T11:28:19.598Z,6.51
2017-12-27T11:29:21.468Z,6.52
2017-12-27T11:30:23.355Z,6.51
2017-12-27T11:31:25.240Z,6.66
2017-12-27T11:32:39.370Z,6.54
2017-12-27T11:33:41.236Z,6.51
2017-12-27T11:34:43.099Z,6.49
2017-12-27T11:35:44.984Z,6.37
2017-12-27T11:36:46.792Z,6.27
2017-12-27T11:37:48.643Z,6.25
2017-12-27T11:38:50.529Z,6.30
2017-12-27T11:39:52.430Z,6.38
2017-12-27T11:40:54.305Z,6.49
2017-12-27T11:42:08.448Z,6.61
2017-12-27T11:43:10.346Z,6.69
2017-12-27T11:44:12.223Z,6.71
2017-12-27T11:45:14.084Z,6.64
2017-12-27T11:46:15.891Z,6.64
2017-12-27T11:47:17.710Z,6.49
2017-12-27T11:48:19.599Z,6.49
2017-12-27T11:49:21.485Z,6.37
2017-12-27T11:50:23.790Z,6.30
2017-12-27T11:51:37.892Z,6.21
2017-12-27T11:52:39.781Z,6.19
2017-12-27T11:53:41.661Z,6.22
2017-12-27T11:54:43.528Z,6.14
2017-12-27T11:55:45.348Z,6.18
2017-12-27T11:56:47.148Z,6.27
2017-12-27T11:57:49.010Z,6.31
2017-12-27T11:58:50.878Z,6.41
2017-12-27T11:59:52.762Z,6.37
2017-12-27T12:01:06.945Z,6.40
2017-12-27T12:02:08.830Z,6.46
2017-12-27T12:03:10.701Z,6.49
2017-12-27T12:04:12.580Z,6.58
2017-12-27T12:05:14.409Z,6.59
2017-12-27T12:06:16.229Z,6.67
2017-12-27T12:07:18.122Z,6.74
2017-12-27T12:08:19.986Z,6.85
2017-12-27T12:09:21.846Z,6.92
2017-12-27T12:10:35.979Z,6.79
2017-12-27T12:11:37.845Z,6.84
2017-12-27T12:12:39.708Z,6.79
2017-12-27T12:13:41.594Z,6.88
2017-12-27T12:14:43.397Z,6.94
2017-12-27T12:15:45.219Z,6.80
2017-12-27T12:16:47.108Z,6.70
2017-12-27T12:17:48.995Z,6.71
2017-12-27T12:18:50.886Z,6.67
2017-12-27T12:20:05.038Z,6.52
2017-12-27T12:21:06.902Z,6.49
2017-12-27T12:22:08.767Z,6.36
2017-12-27T12:23:10.657Z,6.33
2017-12-27T12:24:12.479Z,6.27
2017-12-27T12:25:14.277Z,6.34
2017-12-27T12:26:16.141Z,6.46
2017-12-27T12:27:18.006Z,6.67
2017-12-27T12:28:19.872Z,6.66
2017-12-27T12:29:34.027Z,6.69
2017-12-27T12:30:35.914Z,6.69
2017-12-27T12:31:37.773Z,6.81
2017-12-27T12:32:39.663Z,6.85
2017-12-27T12:33:41.485Z,6.74
2017-12-27T12:34:43.306Z,6.76
2017-12-27T12:35:45.176Z,6.73
2017-12-27T12:36:47.059Z,6.80
2017-12-27T12:37:48.931Z,6.79
2017-12-27T12:39:03.086Z,6.89
2017-12-27T12:40:04.951Z,6.89
2017-12-27T12:41:06.843Z,6.94
2017-12-27T12:42:08.738Z,7.05
2017-12-27T12:43:10.561Z,7.03
2017-12-27T12:44:12.399Z,7.10
2017-12-27T12:45:14.292Z,7.12
2017-12-27T12:46:16.169Z,7.21
2017-12-27T12:47:18.062Z,7.28
2017-12-27T12:48:32.222Z,7.31
2017-12-27T12:49:34.079Z,7.23
2017-12-27T12:50:35.936Z,7.05
2017-12-27T12:51:37.811Z,6.94
2017-12-27T12:52:39.634Z,6.89
2017-12-27T12:53:41.444Z,6.92
2017-12-27T12:54:43.335Z,6.98
2017-12-27T12:55:45.224Z,6.95
2017-12-27T12:56:47.137Z,7.03
2017-12-27T12:58:01.287Z,6.99
2017-12-27T12:59:03.159Z,7.12
2017-12-27T13:00:05.043Z,7.12
2017-12-27T13:01:06.898Z,6.99
2017-12-27T13:02:08.734Z,7.02
2017-12-27T13:03:10.548Z,6.98
2017-12-27T13:04:12.442Z,7.10
2017-12-27T13:05:14.316Z,7.06
2017-12-27T13:06:16.182Z,7.07
2017-12-27T13:07:30.340Z,7.02
2017-12-27T13:08:32.235Z,6.95
2017-12-27T13:09:34.108Z,6.79
2017-12-27T13:10:35.997Z,6.87
2017-12-27T13:11:37.805Z,6.81
2017-12-27T13:12:39.610Z,6.84
2017-12-27T13:13:41.492Z,6.81
2017-12-27T13:14:43.358Z,6.79
2017-12-27T13:15:45.252Z,6.88
2017-12-27T13:16:59.390Z,6.92
2017-12-27T13:18:01.260Z,6.97
2017-12-27T13:19:03.138Z,7.03
2017-12-27T13:20:05.028Z,7.06
2017-12-27T13:21:06.830Z,7.09
2017-12-27T13:22:08.648Z,7.21
2017-12-27T13:23:10.514Z,7.12
2017-12-27T13:24:12.387Z,7.06
2017-12-27T13:25:14.275Z,7.05
2017-12-27T13:26:28.429Z,6.98
2017-12-27T13:27:30.323Z,6.94
2017-12-27T13:28:32.205Z,7.09
2017-12-27T13:29:34.077Z,6.99
2017-12-27T13:30:35.900Z,7.17
2017-12-27T13:31:37.721Z,7.03
2017-12-27T13:32:39.584Z,7.12
2017-12-27T13:33:41.454Z,7.20
2017-12-27T13:34:43.344Z,7.25
2017-12-27T13:35:57.551Z,7.37
2017-12-27T13:36:59.433Z,7.58
2017-12-27T13:38:01.319Z,7.64
2017-12-27T13:39:03.178Z,7.71
2017-12-27T13:40:07.990Z,7.72
2017-12-27T13:41:09.815Z,7.86
2017-12-27T13:42:11.703Z,7.98
2017-12-27T13:43:13.593Z,7.97
2017-12-27T13:44:15.484Z,8.07
2017-12-27T13:45:29.640Z,8.15
2017-12-27T13:46:31.529Z,8.05
2017-12-27T13:47:33.415Z,8.02
2017-12-27T13:48:35.279Z,8.16
2017-12-27T13:49:37.082Z,8.10
2017-12-27T13:50:38.887Z,8.15
2017-12-27T13:51:40.756Z,8.10
2017-12-27T13:52:42.639Z,8.10
2017-12-27T13:53:44.509Z,8.04
2017-12-27T13:54:58.645Z,8.11
2017-12-27T13:56:00.530Z,8.15
2017-12-27T13:57:02.418Z,8.19
2017-12-27T13:58:04.302Z,8.10
2017-12-27T13:59:06.102Z,8.11
2017-12-27T14:00:07.901Z,8.02
2017-12-27T14:01:09.770Z,8.10